sensor_id;sensor_type;location;lat;lon;timestamp;pressure;altitude;pressure_sealevel;temperature;humidity
56456;BME280;42354;53.218;6.564;2022-10-15T00:02:07;100328.09;;;12.53;100.00
56456;BME280;42354;53.218;6.564;2022-10-15T00:04:33;100326.13;;;12.55;100.00
56456;BME280;42354;53.218;6.564;2022-10-15T00:06:58;100330.69;;;12.55;100.00
56456;BME280;42354;53.218;6.564;2022-10-15T00:09:24;100330.69;;;12.55;100.00
56456;BME280;42354;53.218;6.564;2022-10-15T00:11:50;100333.28;;;12.56;100.00
56456;BME280;42354;53.218;6.564;2022-10-15T00:14:17;100333.16;;;12.58;100.00
56456;BME280;42354;53.218;6.564;2022-10-15T00:16:42;100328.63;;;12.58;100.00
56456;BME280;42354;53.218;6.564;2022-10-15T00:19:08;100330.34;;;12.59;100.00
56456;BME280;42354;53.218;6.564;2022-10-15T00:21:34;100331.34;;;12.58;100.00
56456;BME280;42354;53.218;6.564;2022-10-15T00:23:59;100331.66;;;12.54;100.00
56456;BME280;42354;53.218;6.564;2022-10-15T00:26:26;100338.59;;;12.58;100.00
56456;BME280;42354;53.218;6.564;2022-10-15T00:28:55;100335.78;;;12.59;100.00
56456;BME280;42354;53.218;6.564;2022-10-15T00:31:21;100340.19;;;12.61;100.00
56456;BME280;42354;53.218;6.564;2022-10-15T00:33:49;100329.38;;;12.61;100.00
56456;BME280;42354;53.218;6.564;2022-10-15T00:36:18;100329.28;;;12.62;100.00
56456;BME280;42354;53.218;6.564;2022-10-15T00:38:44;100309.69;;;12.58;100.00
56456;BME280;42354;53.218;6.564;2022-10-15T00:41:15;100323.97;;;12.61;100.00
56456;BME280;42354;53.218;6.564;2022-10-15T00:46:35;100330.25;;;12.61;100.00
56456;BME280;42354;53.218;6.564;2022-10-15T00:49:23;100328.72;;;12.57;100.00
56456;BME280;42354;53.218;6.564;2022-10-15T00:52:02;100327.66;;;12.59;100.00
56456;BME280;42354;53.218;6.564;2022-10-15T00:54:35;100330.34;;;12.59;100.00
56456;BME280;42354;53.218;6.564;2022-10-15T00:57:01;100333.81;;;12.62;100.00
56456;BME280;42354;53.218;6.564;2022-10-15T00:59:28;100329.16;;;12.64;100.00
56456;BME280;42354;53.218;6.564;2022-10-15T01:01:54;100325.69;;;12.62;100.00
56456;BME280;42354;53.218;6.564;2022-10-15T01:04:20;100333.72;;;12.63;100.00
56456;BME280;42354;53.218;6.564;2022-10-15T01:06:47;100339.22;;;12.62;100.00
56456;BME280;42354;53.218;6.564;2022-10-15T01:09:12;100319.41;;;12.61;100.00
56456;BME280;42354;53.218;6.564;2022-10-15T01:11:46;100324.19;;;12.57;100.00
56456;BME280;42354;53.218;6.564;2022-10-15T01:19:36;100313.47;;;12.56;100.00
56456;BME280;42354;53.218;6.564;2022-10-15T01:27:43;100297.47;;;12.53;100.00
56456;BME280;42354;53.218;6.564;2022-10-15T01:30:21;100299.31;;;12.52;100.00
56456;BME280;42354;53.218;6.564;2022-10-15T01:33:16;100306.66;;;12.50;100.00
56456;BME280;42354;53.218;6.564;2022-10-15T01:35:49;100297.56;;;12.51;100.00
56456;BME280;42354;53.218;6.564;2022-10-15T01:43:45;100303.84;;;12.52;100.00
56456;BME280;42354;53.218;6.564;2022-10-15T01:46:19;100293.13;;;12.50;100.00
56456;BME280;42354;53.218;6.564;2022-10-15T01:48:45;100295.84;;;12.38;100.00
56456;BME280;42354;53.218;6.564;2022-10-15T01:51:13;100290.88;;;12.44;100.00
56456;BME280;42354;53.218;6.564;2022-10-15T01:53:42;100289.03;;;12.45;100.00
56456;BME280;42354;53.218;6.564;2022-10-15T01:56:12;100295.19;;;12.47;100.00
56456;BME280;42354;53.218;6.564;2022-10-15T01:58:41;100293.47;;;12.46;100.00
56456;BME280;42354;53.218;6.564;2022-10-15T02:01:07;100290.66;;;12.47;100.00
56456;BME280;42354;53.218;6.564;2022-10-15T02:03:53;100284.59;;;12.44;100.00
56456;BME280;42354;53.218;6.564;2022-10-15T02:06:23;100279.06;;;12.45;100.00
56456;BME280;42354;53.218;6.564;2022-10-15T02:09:13;100280.91;;;12.45;100.00
56456;BME280;42354;53.218;6.564;2022-10-15T02:14:47;100277.56;;;12.41;100.00
56456;BME280;42354;53.218;6.564;2022-10-15T02:17:20;100274.09;;;12.39;100.00
56456;BME280;42354;53.218;6.564;2022-10-15T02:19:56;100271.28;;;12.41;100.00
56456;BME280;42354;53.218;6.564;2022-10-15T02:22:31;100270.41;;;12.40;100.00
56456;BME280;42354;53.218;6.564;2022-10-15T02:25:08;100265.22;;;12.37;100.00
56456;BME280;42354;53.218;6.564;2022-10-15T02:27:35;100268.03;;;12.36;100.00
56456;BME280;42354;53.218;6.564;2022-10-15T02:30:03;100265.34;;;12.36;100.00
56456;BME280;42354;53.218;6.564;2022-10-15T02:32:33;100260.78;;;12.36;100.00
56456;BME280;42354;53.218;6.564;2022-10-15T02:35:00;100262.63;;;12.36;100.00
56456;BME280;42354;53.218;6.564;2022-10-15T02:37:28;100261.78;;;12.35;100.00
56456;BME280;42354;53.218;6.564;2022-10-15T02:39:54;100263.50;;;12.36;100.00
56456;BME280;42354;53.218;6.564;2022-10-15T02:42:20;100259.06;;;12.35;100.00
56456;BME280;42354;53.218;6.564;2022-10-15T02:44:45;100259.94;;;12.36;100.00
56456;BME280;42354;53.218;6.564;2022-10-15T02:47:11;100248.34;;;12.34;100.00
56456;BME280;42354;53.218;6.564;2022-10-15T02:49:37;100246.53;;;12.34;100.00
56456;BME280;42354;53.218;6.564;2022-10-15T02:52:03;100248.34;;;12.34;100.00
56456;BME280;42354;53.218;6.564;2022-10-15T02:54:28;100252.91;;;12.33;100.00
56456;BME280;42354;53.218;6.564;2022-10-15T02:56:54;100238.72;;;12.30;100.00
56456;BME280;42354;53.218;6.564;2022-10-15T02:59:19;100245.00;;;12.30;100.00
56456;BME280;42354;53.218;6.564;2022-10-15T03:01:45;100245.22;;;12.27;100.00
56456;BME280;42354;53.218;6.564;2022-10-15T03:04:10;100248.03;;;12.25;100.00
56456;BME280;42354;53.218;6.564;2022-10-15T03:06:36;100245.44;;;12.24;100.00
56456;BME280;42354;53.218;6.564;2022-10-15T03:09:01;100249.13;;;12.23;100.00
56456;BME280;42354;53.218;6.564;2022-10-15T03:11:27;100242.22;;;12.19;100.00
56456;BME280;42354;53.218;6.564;2022-10-15T03:13:55;100249.44;;;12.18;100.00
56456;BME280;42354;53.218;6.564;2022-10-15T03:16:21;100244.16;;;12.17;100.00
56456;BME280;42354;53.218;6.564;2022-10-15T03:18:46;100243.19;;;12.18;100.00
56456;BME280;42354;53.218;6.564;2022-10-15T03:21:12;100236.78;;;12.19;100.00
56456;BME280;42354;53.218;6.564;2022-10-15T03:23:37;100238.53;;;12.20;100.00
56456;BME280;42354;53.218;6.564;2022-10-15T03:26:02;100241.13;;;12.21;100.00
56456;BME280;42354;53.218;6.564;2022-10-15T03:28:28;100237.44;;;12.22;100.00
56456;BME280;42354;53.218;6.564;2022-10-15T03:30:53;100236.47;;;12.23;100.00
56456;BME280;42354;53.218;6.564;2022-10-15T03:33:18;100231.28;;;12.20;100.00
56456;BME280;42354;53.218;6.564;2022-10-15T03:35:44;100235.72;;;12.21;100.00
56456;BME280;42354;53.218;6.564;2022-10-15T03:38:09;100237.44;;;12.22;100.00
56456;BME280;42354;53.218;6.564;2022-10-15T03:40:35;100231.28;;;12.20;100.00
56456;BME280;42354;53.218;6.564;2022-10-15T03:43:00;100227.72;;;12.20;100.00
56456;BME280;42354;53.218;6.564;2022-10-15T03:45:26;100232.03;;;12.22;100.00
56456;BME280;42354;53.218;6.564;2022-10-15T03:47:52;100237.44;;;12.22;100.00
56456;BME280;42354;53.218;6.564;2022-10-15T03:50:17;100233.00;;;12.21;100.00
56456;BME280;42354;53.218;6.564;2022-10-15T03:52:43;100224.91;;;12.21;100.00
56456;BME280;42354;53.218;6.564;2022-10-15T03:55:09;100225.00;;;12.20;100.00
56456;BME280;42354;53.218;6.564;2022-10-15T03:57:35;100224.91;;;12.21;100.00
56456;BME280;42354;53.218;6.564;2022-10-15T04:00:02;100224.91;;;12.21;100.00
56456;BME280;42354;53.218;6.564;2022-10-15T04:02:29;100232.03;;;12.22;100.00
56456;BME280;42354;53.218;6.564;2022-10-15T04:04:55;100225.75;;;12.22;100.00
56456;BME280;42354;53.218;6.564;2022-10-15T04:07:21;100224.78;;;12.23;100.00
56456;BME280;42354;53.218;6.564;2022-10-15T04:09:46;100230.19;;;12.23;100.00
56456;BME280;42354;53.218;6.564;2022-10-15T04:12:12;100228.25;;;12.25;100.00
56456;BME280;42354;53.218;6.564;2022-10-15T04:14:38;100224.69;;;12.24;100.00
56456;BME280;42354;53.218;6.564;2022-10-15T04:17:04;100232.69;;;12.26;100.00
56456;BME280;42354;53.218;6.564;2022-10-15T04:19:29;100238.09;;;12.26;100.00
56456;BME280;42354;53.218;6.564;2022-10-15T04:21:55;100228.13;;;12.26;100.00
56456;BME280;42354;53.218;6.564;2022-10-15T04:24:20;100236.13;;;12.28;100.00
56456;BME280;42354;53.218;6.564;2022-10-15T04:26:45;100229.88;;;12.27;100.00
56456;BME280;42354;53.218;6.564;2022-10-15T04:29:11;100231.72;;;12.27;100.00
56456;BME280;42354;53.218;6.564;2022-10-15T04:31:36;100239.06;;;12.25;100.00
56456;BME280;42354;53.218;6.564;2022-10-15T04:34:03;100240.78;;;12.26;100.00
56456;BME280;42354;53.218;6.564;2022-10-15T04:36:28;100237.22;;;12.25;100.00
56456;BME280;42354;53.218;6.564;2022-10-15T04:38:54;100239.94;;;12.25;100.00
56456;BME280;42354;53.218;6.564;2022-10-15T04:41:19;100239.94;;;12.25;100.00
56456;BME280;42354;53.218;6.564;2022-10-15T04:43:44;100235.50;;;12.24;100.00
56456;BME280;42354;53.218;6.564;2022-10-15T04:46:10;100229.34;;;12.22;100.00
56456;BME280;42354;53.218;6.564;2022-10-15T04:48:37;100227.59;;;12.21;100.00
56456;BME280;42354;53.218;6.564;2022-10-15T04:51:07;100236.56;;;12.22;100.00
56456;BME280;42354;53.218;6.564;2022-10-15T04:53:33;100235.81;;;12.20;100.00
56456;BME280;42354;53.218;6.564;2022-10-15T04:56:04;100225.00;;;12.20;100.00
56456;BME280;42354;53.218;6.564;2022-10-15T04:58:32;100234.97;;;12.19;100.00
56456;BME280;42354;53.218;6.564;2022-10-15T05:01:06;100232.38;;;12.18;100.00
56456;BME280;42354;53.218;6.564;2022-10-15T05:03:33;100226.09;;;12.17;100.00
56456;BME280;42354;53.218;6.564;2022-10-15T05:06:04;100232.59;;;12.15;100.00
56456;BME280;42354;53.218;6.564;2022-10-15T05:08:31;100230.63;;;12.17;100.00
56456;BME280;42354;53.218;6.564;2022-10-15T05:11:04;100233.56;;;12.14;100.00
56456;BME280;42354;53.218;6.564;2022-10-15T05:13:30;100231.81;;;12.13;100.00
56456;BME280;42354;53.218;6.564;2022-10-15T05:15:56;100233.78;;;12.11;100.00
56456;BME280;42354;53.218;6.564;2022-10-15T05:18:22;100236.47;;;12.11;100.00
56456;BME280;42354;53.218;6.564;2022-10-15T05:20:47;100231.06;;;12.11;100.00
56456;BME280;42354;53.218;6.564;2022-10-15T05:23:12;100232.91;;;12.10;100.00
56456;BME280;42354;53.218;6.564;2022-10-15T05:25:38;100229.44;;;12.08;100.00
56456;BME280;42354;53.218;6.564;2022-10-15T05:28:05;100230.53;;;12.06;100.00
56456;BME280;42354;53.218;6.564;2022-10-15T05:30:30;100234.09;;;12.06;100.00
56456;BME280;42354;53.218;6.564;2022-10-15T05:32:57;100231.41;;;12.06;100.00
56456;BME280;42354;53.218;6.564;2022-10-15T05:35:23;100230.53;;;12.06;100.00
56456;BME280;42354;53.218;6.564;2022-10-15T05:37:48;100227.94;;;12.04;100.00
56456;BME280;42354;53.218;6.564;2022-10-15T05:40:14;100230.75;;;12.03;100.00
56456;BME280;42354;53.218;6.564;2022-10-15T05:42:39;100226.22;;;12.03;100.00
56456;BME280;42354;53.218;6.564;2022-10-15T05:45:05;100234.31;;;12.03;100.00
56456;BME280;42354;53.218;6.564;2022-10-15T05:47:30;100231.72;;;12.02;100.00
56456;BME280;42354;53.218;6.564;2022-10-15T05:49:56;100245.25;;;12.02;100.00
56456;BME280;42354;53.218;6.564;2022-10-15T05:52:21;100233.66;;;12.00;100.00
56456;BME280;42354;53.218;6.564;2022-10-15T05:54:47;100237.78;;;12.05;100.00
56456;BME280;42354;53.218;6.564;2022-10-15T05:57:12;100236.03;;;12.04;100.00
56456;BME280;42354;53.218;6.564;2022-10-15T05:59:37;100234.22;;;12.05;100.00
56456;BME280;42354;53.218;6.564;2022-10-15T06:02:03;100239.63;;;12.05;100.00
56456;BME280;42354;53.218;6.564;2022-10-15T06:04:29;100231.50;;;12.05;100.00
56456;BME280;42354;53.218;6.564;2022-10-15T06:06:57;100236.91;;;12.05;100.00
56456;BME280;42354;53.218;6.564;2022-10-15T06:09:22;100242.09;;;12.08;100.00
56456;BME280;42354;53.218;6.564;2022-10-15T06:11:47;100236.59;;;12.09;100.00
56456;BME280;42354;53.218;6.564;2022-10-15T06:14:13;100237.44;;;12.10;100.00
56456;BME280;42354;53.218;6.564;2022-10-15T06:16:38;100241.03;;;12.10;100.00
56456;BME280;42354;53.218;6.564;2022-10-15T06:19:04;100234.63;;;12.11;100.00
56456;BME280;42354;53.218;6.564;2022-10-15T06:21:30;100245.22;;;12.14;100.00
56456;BME280;42354;53.218;6.564;2022-10-15T06:23:56;100233.56;;;12.14;100.00
56456;BME280;42354;53.218;6.564;2022-10-15T06:26:21;100229.88;;;12.15;100.00
56456;BME280;42354;53.218;6.564;2022-10-15T06:28:47;100223.38;;;12.17;100.00
56456;BME280;42354;53.218;6.564;2022-10-15T06:31:12;100222.41;;;12.18;100.00
56456;BME280;42354;53.218;6.564;2022-10-15T06:33:37;100228.78;;;12.17;100.00
56456;BME280;42354;53.218;6.564;2022-10-15T06:36:08;100237.78;;;12.18;100.00
56456;BME280;42354;53.218;6.564;2022-10-15T06:38:34;100237.44;;;12.22;100.00
56456;BME280;42354;53.218;6.564;2022-10-15T06:41:03;100237.34;;;12.24;100.00
56456;BME280;42354;53.218;6.564;2022-10-15T06:43:32;100241.78;;;12.25;100.00
56456;BME280;42354;53.218;6.564;2022-10-15T06:46:02;100241.78;;;12.25;100.00
56456;BME280;42354;53.218;6.564;2022-10-15T06:48:28;100227.28;;;12.26;100.00
56456;BME280;42354;53.218;6.564;2022-10-15T06:50:57;100222.09;;;12.23;100.00
56456;BME280;42354;53.218;6.564;2022-10-15T06:53:23;100223.94;;;12.22;100.00
56456;BME280;42354;53.218;6.564;2022-10-15T06:55:49;100236.78;;;12.32;100.00
56456;BME280;42354;53.218;6.564;2022-10-15T06:58:15;100252.69;;;12.36;100.00
56456;BME280;42354;53.218;6.564;2022-10-15T07:00:43;100234.19;;;12.30;100.00
56456;BME280;42354;53.218;6.564;2022-10-15T07:03:08;100239.28;;;12.35;100.00
56456;BME280;42354;53.218;6.564;2022-10-15T07:05:34;100227.91;;;12.30;100.00
56456;BME280;42354;53.218;6.564;2022-10-15T07:08:00;100221.31;;;12.34;100.00
56456;BME280;42354;53.218;6.564;2022-10-15T07:10:26;100238.38;;;12.47;100.00
56456;BME280;42354;53.218;6.564;2022-10-15T07:12:52;100241.72;;;12.50;100.00
56456;BME280;42354;53.218;6.564;2022-10-15T07:15:19;100232.75;;;12.50;100.00
56456;BME280;42354;53.218;6.564;2022-10-15T07:17:49;100238.81;;;12.53;100.00
56456;BME280;42354;53.218;6.564;2022-10-15T07:20:15;100238.59;;;12.56;100.00
56456;BME280;42354;53.218;6.564;2022-10-15T07:22:41;100230.25;;;12.59;100.00
56456;BME280;42354;53.218;6.564;2022-10-15T07:25:07;100227.00;;;12.54;100.00
56456;BME280;42354;53.218;6.564;2022-10-15T07:27:34;100217.47;;;12.62;100.00
56456;BME280;42354;53.218;6.564;2022-10-15T07:29:59;100229.47;;;12.70;100.00
56456;BME280;42354;53.218;6.564;2022-10-15T07:32:25;100221.44;;;12.69;100.00
56456;BME280;42354;53.218;6.564;2022-10-15T07:34:51;100250.44;;;12.79;100.00
56456;BME280;42354;53.218;6.564;2022-10-15T07:37:17;100245.88;;;12.80;100.00
56456;BME280;42354;53.218;6.564;2022-10-15T07:39:42;100247.63;;;12.81;100.00
56456;BME280;42354;53.218;6.564;2022-10-15T07:42:10;100243.81;;;12.83;100.00
56456;BME280;42354;53.218;6.564;2022-10-15T07:44:35;100244.44;;;12.87;100.00
56456;BME280;42354;53.218;6.564;2022-10-15T07:47:01;100223.78;;;12.86;100.00
56456;BME280;42354;53.218;6.564;2022-10-15T07:49:29;100217.16;;;12.90;100.00
56456;BME280;42354;53.218;6.564;2022-10-15T07:51:54;100211.28;;;12.96;100.00
56456;BME280;42354;53.218;6.564;2022-10-15T07:54:19;100213.41;;;13.04;100.00
56456;BME280;42354;53.218;6.564;2022-10-15T07:56:45;100211.09;;;13.10;100.00
56456;BME280;42354;53.218;6.564;2022-10-15T07:59:10;100212.28;;;13.19;100.00
56456;BME280;42354;53.218;6.564;2022-10-15T08:01:36;100221.97;;;13.34;100.00
56456;BME280;42354;53.218;6.564;2022-10-15T08:04:01;100226.56;;;13.45;100.00
56456;BME280;42354;53.218;6.564;2022-10-15T08:06:30;100225.00;;;13.53;100.00
56456;BME280;42354;53.218;6.564;2022-10-15T08:08:56;100221.81;;;13.60;100.00
56456;BME280;42354;53.218;6.564;2022-10-15T08:11:21;100220.47;;;13.65;100.00
56456;BME280;42354;53.218;6.564;2022-10-15T08:13:47;100220.97;;;13.70;100.00
56456;BME280;42354;53.218;6.564;2022-10-15T08:16:14;100222.22;;;13.77;100.00
56456;BME280;42354;53.218;6.564;2022-10-15T08:18:41;100221.25;;;13.78;100.00
56456;BME280;42354;53.218;6.564;2022-10-15T08:21:07;100224.22;;;13.86;100.00
56456;BME280;42354;53.218;6.564;2022-10-15T08:23:33;100225.47;;;13.94;100.00
56456;BME280;42354;53.218;6.564;2022-10-15T08:25:59;100234.59;;;14.04;100.00
56456;BME280;42354;53.218;6.564;2022-10-15T08:28:32;100229.66;;;14.09;100.00
56456;BME280;42354;53.218;6.564;2022-10-15T08:30:58;100218.81;;;14.09;100.00
56456;BME280;42354;53.218;6.564;2022-10-15T08:33:24;100223.00;;;14.13;100.00
56456;BME280;42354;53.218;6.564;2022-10-15T08:35:49;100212.53;;;14.19;100.00
56456;BME280;42354;53.218;6.564;2022-10-15T08:38:15;100215.88;;;14.23;100.00
56456;BME280;42354;53.218;6.564;2022-10-15T08:40:46;100217.72;;;14.34;100.00
56456;BME280;42354;53.218;6.564;2022-10-15T08:43:19;100224.78;;;14.47;100.00
56456;BME280;42354;53.218;6.564;2022-10-15T08:45:46;100232.78;;;14.60;100.00
56456;BME280;42354;53.218;6.564;2022-10-15T08:48:21;100237.22;;;14.72;100.00
56456;BME280;42354;53.218;6.564;2022-10-15T08:50:49;100239.69;;;14.64;100.00
56456;BME280;42354;53.218;6.564;2022-10-15T08:53:21;100240.03;;;14.82;100.00
56456;BME280;42354;53.218;6.564;2022-10-15T08:55:49;100238.06;;;14.84;100.00
56456;BME280;42354;53.218;6.564;2022-10-15T09:01:03;100247.22;;;14.72;100.00
56456;BME280;42354;53.218;6.564;2022-10-15T09:06:24;100242.91;;;14.69;100.00
56456;BME280;42354;53.218;6.564;2022-10-15T09:14:27;100234.28;;;14.64;100.00
56456;BME280;42354;53.218;6.564;2022-10-15T09:17:01;100239.56;;;14.66;100.00
56456;BME280;42354;53.218;6.564;2022-10-15T09:19:36;100239.31;;;14.69;100.00
56456;BME280;42354;53.218;6.564;2022-10-15T09:22:02;100230.19;;;14.70;100.00
56456;BME280;42354;53.218;6.564;2022-10-15T09:24:31;100225.72;;;14.80;100.00
56456;BME280;42354;53.218;6.564;2022-10-15T09:27:04;100228.81;;;14.87;100.00
56456;BME280;42354;53.218;6.564;2022-10-15T09:32:41;100252.38;;;14.97;100.00
56456;BME280;42354;53.218;6.564;2022-10-15T09:35:16;100254.94;;;14.99;100.00
56456;BME280;42354;53.218;6.564;2022-10-15T09:37:51;100249.38;;;15.00;100.00
56456;BME280;42354;53.218;6.564;2022-10-15T09:40:43;100251.25;;;15.00;100.00
56456;BME280;42354;53.218;6.564;2022-10-15T09:43:13;100250.81;;;14.61;100.00
56456;BME280;42354;53.218;6.564;2022-10-15T09:45:48;100259.31;;;14.79;100.00
56456;BME280;42354;53.218;6.564;2022-10-15T09:48:22;100238.09;;;14.62;100.00
56456;BME280;42354;53.218;6.564;2022-10-15T09:51:53;100251.31;;;14.55;100.00
56456;BME280;42354;53.218;6.564;2022-10-15T09:56:52;100236.47;;;14.26;100.00
56456;BME280;42354;53.218;6.564;2022-10-15T09:59:20;100238.44;;;14.24;100.00
56456;BME280;42354;53.218;6.564;2022-10-15T10:04:40;100234.47;;;14.05;100.00
56456;BME280;42354;53.218;6.564;2022-10-15T10:07:06;100240.25;;;14.01;100.00
56456;BME280;42354;53.218;6.564;2022-10-15T10:09:37;100242.97;;;14.01;100.00
56456;BME280;42354;53.218;6.564;2022-10-15T10:12:05;100241.13;;;14.01;100.00
56456;BME280;42354;53.218;6.564;2022-10-15T10:14:45;100252.84;;;14.02;100.00
56456;BME280;42354;53.218;6.564;2022-10-15T10:17:18;100250.25;;;14.00;100.00
56456;BME280;42354;53.218;6.564;2022-10-15T10:20:17;100252.09;;;14.00;100.00
56456;BME280;42354;53.218;6.564;2022-10-15T10:22:52;100249.75;;;13.95;100.00
56456;BME280;42354;53.218;6.564;2022-10-15T10:25:30;100254.41;;;13.93;100.00
56456;BME280;42354;53.218;6.564;2022-10-15T10:33:28;100231.63;;;13.96;100.00
56456;BME280;42354;53.218;6.564;2022-10-15T10:35:55;100225.97;;;13.99;100.00
56456;BME280;42354;53.218;6.564;2022-10-15T10:38:25;100216.97;;;14.09;100.00
56456;BME280;42354;53.218;6.564;2022-10-15T10:41:08;100217.72;;;14.11;100.00
56456;BME280;42354;53.218;6.564;2022-10-15T10:43:36;100213.66;;;14.17;100.00
56456;BME280;42354;53.218;6.564;2022-10-15T10:48:45;100196.63;;;14.26;100.00
56456;BME280;42354;53.218;6.564;2022-10-15T10:51:21;100197.38;;;14.39;100.00
56456;BME280;42354;53.218;6.564;2022-10-15T10:54:00;100191.22;;;14.48;100.00
56456;BME280;42354;53.218;6.564;2022-10-15T10:56:33;100187.00;;;14.67;100.00
56456;BME280;42354;53.218;6.564;2022-10-15T10:59:05;100204.88;;;14.80;100.00
56456;BME280;42354;53.218;6.564;2022-10-15T11:01:34;100194.00;;;14.92;100.00
56456;BME280;42354;53.218;6.564;2022-10-15T11:04:00;100195.19;;;14.99;100.00
56456;BME280;42354;53.218;6.564;2022-10-15T11:17:16;100196.31;;;15.28;100.00
56456;BME280;42354;53.218;6.564;2022-10-15T11:30:37;100157.56;;;15.47;100.00
56456;BME280;42354;53.218;6.564;2022-10-15T11:33:26;100157.78;;;15.55;100.00
56456;BME280;42354;53.218;6.564;2022-10-15T11:38:46;100159.56;;;15.77;100.00
56456;BME280;42354;53.218;6.564;2022-10-15T11:41:21;100156.69;;;15.78;100.00
56456;BME280;42354;53.218;6.564;2022-10-15T11:47:19;100162.31;;;15.87;100.00
56456;BME280;42354;53.218;6.564;2022-10-15T11:49:54;100164.56;;;16.02;100.00
56456;BME280;42354;53.218;6.564;2022-10-15T11:52:58;100158.72;;;16.07;100.00
56456;BME280;42354;53.218;6.564;2022-10-15T11:55:34;100163.06;;;16.19;100.00
56456;BME280;42354;53.218;6.564;2022-10-15T11:58:10;100152.72;;;16.13;100.00
56456;BME280;42354;53.218;6.564;2022-10-15T12:00:44;100142.13;;;16.10;100.00
56456;BME280;42354;53.218;6.564;2022-10-15T12:03:25;100143.84;;;16.11;100.00
56456;BME280;42354;53.218;6.564;2022-10-15T12:06:00;100148.19;;;16.23;100.00
56456;BME280;42354;53.218;6.564;2022-10-15T12:08:33;100148.53;;;16.39;100.00
56456;BME280;42354;53.218;6.564;2022-10-15T12:11:15;100141.41;;;16.48;99.17
56456;BME280;42354;53.218;6.564;2022-10-15T12:13:59;100137.13;;;16.55;99.25
56456;BME280;42354;53.218;6.564;2022-10-15T12:16:47;100135.53;;;16.53;98.50
56456;BME280;42354;53.218;6.564;2022-10-15T12:19:20;100132.81;;;16.53;98.82
56456;BME280;42354;53.218;6.564;2022-10-15T12:27:33;100133.63;;;16.34;98.43
56456;BME280;42354;53.218;6.564;2022-10-15T12:34:56;100124.13;;;16.28;99.13
56456;BME280;42354;53.218;6.564;2022-10-15T12:37:27;100112.41;;;16.28;98.69
56456;BME280;42354;53.218;6.564;2022-10-15T12:39:55;100125.00;;;16.29;99.22
56456;BME280;42354;53.218;6.564;2022-10-15T12:42:34;100122.41;;;16.27;98.52
56456;BME280;42354;53.218;6.564;2022-10-15T12:45:02;100115.84;;;16.30;98.81
56456;BME280;42354;53.218;6.564;2022-10-15T12:50:25;100113.13;;;16.30;98.88
56456;BME280;42354;53.218;6.564;2022-10-15T12:52:55;100123.00;;;16.31;99.63
56456;BME280;42354;53.218;6.564;2022-10-15T12:55:34;100116.06;;;16.17;99.97
56456;BME280;42354;53.218;6.564;2022-10-15T12:58:04;100115.34;;;16.15;100.00
56456;BME280;42354;53.218;6.564;2022-10-15T13:00:38;100109.00;;;16.05;100.00
56456;BME280;42354;53.218;6.564;2022-10-15T13:03:20;100118.28;;;15.93;100.00
56456;BME280;42354;53.218;6.564;2022-10-15T13:05:47;100109.47;;;15.79;100.00
56456;BME280;42354;53.218;6.564;2022-10-15T13:08:25;100121.16;;;15.70;100.00
56456;BME280;42354;53.218;6.564;2022-10-15T13:10:58;100105.66;;;15.61;100.00
56456;BME280;42354;53.218;6.564;2022-10-15T13:13:27;100099.97;;;15.53;100.00
56456;BME280;42354;53.218;6.564;2022-10-15T13:16:00;100110.63;;;15.45;100.00
56456;BME280;42354;53.218;6.564;2022-10-15T13:18:28;100092.59;;;15.44;100.00
56456;BME280;42354;53.218;6.564;2022-10-15T13:20:56;100090.16;;;15.41;100.00
56456;BME280;42354;53.218;6.564;2022-10-15T13:23:25;100089.44;;;15.39;100.00
56456;BME280;42354;53.218;6.564;2022-10-15T13:26:08;100086.44;;;15.42;100.00
56456;BME280;42354;53.218;6.564;2022-10-15T13:28:35;100064.78;;;15.31;100.00
56456;BME280;42354;53.218;6.564;2022-10-15T13:31:11;100088.16;;;15.43;100.00
56456;BME280;42354;53.218;6.564;2022-10-15T13:33:40;100082.88;;;15.41;100.00
56456;BME280;42354;53.218;6.564;2022-10-15T13:36:19;100088.44;;;15.40;100.00
56456;BME280;42354;53.218;6.564;2022-10-15T13:38:51;100086.72;;;15.39;100.00
56456;BME280;42354;53.218;6.564;2022-10-15T13:41:23;100082.28;;;15.38;100.00
56456;BME280;42354;53.218;6.564;2022-10-15T13:43:53;100085.13;;;15.36;100.00
56456;BME280;42354;53.218;6.564;2022-10-15T13:46:23;100075.38;;;15.34;100.00
56456;BME280;42354;53.218;6.564;2022-10-15T13:48:55;100072.06;;;15.30;100.00
56456;BME280;42354;53.218;6.564;2022-10-15T13:51:21;100071.22;;;15.30;100.00
56456;BME280;42354;53.218;6.564;2022-10-15T13:53:46;100064.63;;;15.32;100.00
56456;BME280;42354;53.218;6.564;2022-10-15T13:56:31;100073.31;;;15.26;100.00
56456;BME280;42354;53.218;6.564;2022-10-15T13:58:58;100071.34;;;15.28;100.00
56456;BME280;42354;53.218;6.564;2022-10-15T14:01:26;100074.44;;;15.24;100.00
56456;BME280;42354;53.218;6.564;2022-10-15T14:03:52;100079.88;;;15.24;100.00
56456;BME280;42354;53.218;6.564;2022-10-15T14:11:35;100077.38;;;15.11;100.00
56456;BME280;42354;53.218;6.564;2022-10-15T14:14:00;100078.22;;;15.11;100.00
56456;BME280;42354;53.218;6.564;2022-10-15T14:16:48;100076.78;;;15.07;100.00
56456;BME280;42354;53.218;6.564;2022-10-15T14:19:17;100074.06;;;15.07;100.00
56456;BME280;42354;53.218;6.564;2022-10-15T14:21:45;100080.22;;;15.09;100.00
56456;BME280;42354;53.218;6.564;2022-10-15T14:24:18;100080.94;;;15.11;100.00
56456;BME280;42354;53.218;6.564;2022-10-15T14:26:45;100081.69;;;15.13;100.00
56456;BME280;42354;53.218;6.564;2022-10-15T14:29:38;100079.22;;;15.10;100.00